createdAt,value
2023-01-19T00:02:47.295Z,5.77
2023-01-19T00:05:51.372Z,5.66
2023-01-19T00:08:53.995Z,5.57
2023-01-19T00:11:56.583Z,5.48
2023-01-19T00:14:59.140Z,5.42
2023-01-19T00:18:01.661Z,5.38
2023-01-19T00:21:05.713Z,5.35
2023-01-19T00:24:08.429Z,5.36
2023-01-19T00:27:10.962Z,5.36
2023-01-19T00:30:14.068Z,5.37
2023-01-19T00:33:16.659Z,5.35
2023-01-19T00:36:20.777Z,5.34
2023-01-19T00:39:23.310Z,5.32
2023-01-19T00:42:41.197Z,5.32
2023-01-19T00:45:43.791Z,5.31
2023-01-19T00:48:46.407Z,5.29
2023-01-19T00:51:50.300Z,5.29
2023-01-19T00:54:52.830Z,5.31
2023-01-19T00:57:55.388Z,5.32
2023-01-19T01:01:03.466Z,5.30
2023-01-19T01:04:06.629Z,5.27
2023-01-19T01:07:10.684Z,5.22
2023-01-19T01:10:14.213Z,5.20
2023-01-19T01:13:20.180Z,5.17
2023-01-19T01:16:24.972Z,5.15
2023-01-19T01:19:27.608Z,5.13
2023-01-19T01:22:31.698Z,5.11
2023-01-19T01:25:37.596Z,5.05
2023-01-19T01:28:40.143Z,4.97
2023-01-19T01:31:42.774Z,4.91
2023-01-19T01:34:45.372Z,4.85
2023-01-19T01:37:49.287Z,4.83
2023-01-19T01:40:51.828Z,4.87
2023-01-19T01:43:58.106Z,4.91
2023-01-19T01:47:00.768Z,4.93
2023-01-19T01:50:09.986Z,4.96
2023-01-19T01:53:14.528Z,4.98
2023-01-19T01:56:23.101Z,4.98
2023-01-19T01:59:29.707Z,4.99
2023-01-19T02:02:49.722Z,5.00
2023-01-19T02:05:52.259Z,5.02
2023-01-19T02:09:16.174Z,5.03
2023-01-19T02:12:36.358Z,4.98
2023-01-19T02:15:38.913Z,4.96
2023-01-19T02:18:41.647Z,4.83
2023-01-19T02:21:53.097Z,4.68
2023-01-19T02:24:56.967Z,4.65
2023-01-19T02:27:59.495Z,4.61
2023-01-19T02:31:02.128Z,4.58
2023-01-19T02:34:04.996Z,4.55
2023-01-19T02:37:08.660Z,4.52
2023-01-19T02:40:13.937Z,4.51
2023-01-19T02:43:16.536Z,4.51
2023-01-19T02:46:19.101Z,4.48
2023-01-19T02:49:21.648Z,4.39
2023-01-19T02:52:24.176Z,4.32
2023-01-19T02:55:28.832Z,4.27
2023-01-19T02:58:33.529Z,4.24
2023-01-19T03:01:41.950Z,4.24
2023-01-19T03:04:54.803Z,4.25
2023-01-19T03:08:00.106Z,4.24
2023-01-19T03:11:04.897Z,4.22
2023-01-19T03:14:09.869Z,4.22
2023-01-19T03:17:12.393Z,4.25
2023-01-19T03:20:15.020Z,4.34
2023-01-19T03:23:17.542Z,4.26
2023-01-19T03:26:24.667Z,4.38
2023-01-19T03:29:29.313Z,4.39
2023-01-19T03:32:35.456Z,4.45
2023-01-19T03:35:39.910Z,4.49
2023-01-19T03:38:42.657Z,4.53
2023-01-19T03:41:46.581Z,4.55
2023-01-19T03:44:50.606Z,4.59
2023-01-19T03:47:53.240Z,4.64
2023-01-19T03:50:56.038Z,4.70
2023-01-19T03:53:58.617Z,4.80
2023-01-19T03:57:02.536Z,4.90
2023-01-19T04:00:06.457Z,4.99
2023-01-19T04:03:13.856Z,5.06
2023-01-19T04:06:16.452Z,5.12
2023-01-19T04:09:20.136Z,5.16
2023-01-19T04:12:24.091Z,5.20
2023-01-19T04:15:26.737Z,5.23
2023-01-19T04:18:29.301Z,5.24
2023-01-19T04:21:31.822Z,5.34
2023-01-19T04:24:34.361Z,5.39
2023-01-19T04:27:38.332Z,5.43
2023-01-19T04:30:40.916Z,5.48
2023-01-19T04:33:43.496Z,5.50
2023-01-19T04:36:46.871Z,5.53
2023-01-19T04:39:49.450Z,5.54
2023-01-19T04:42:54.305Z,5.56
2023-01-19T04:45:56.876Z,5.58
2023-01-19T04:48:59.873Z,5.59
2023-01-19T04:52:02.486Z,5.60
2023-01-19T04:55:05.505Z,5.61
2023-01-19T04:58:09.375Z,5.63
2023-01-19T05:01:12.006Z,5.65
2023-01-19T05:04:14.577Z,5.65
2023-01-19T05:07:17.188Z,5.64
2023-01-19T05:10:20.204Z,5.65
2023-01-19T05:13:24.097Z,5.66
2023-01-19T05:16:26.689Z,5.67
2023-01-19T05:19:29.300Z,5.66
2023-01-19T05:22:31.989Z,5.66
2023-01-19T05:25:34.522Z,5.66
2023-01-19T05:28:38.772Z,5.67
2023-01-19T05:31:41.326Z,5.67
2023-01-19T05:34:43.896Z,5.67
2023-01-19T05:37:46.477Z,5.65
2023-01-19T05:40:49.502Z,5.65
2023-01-19T05:43:53.479Z,5.64
2023-01-19T05:46:56.160Z,5.64
2023-01-19T05:49:58.738Z,5.63
2023-01-19T05:53:01.680Z,5.62
2023-01-19T05:56:06.049Z,5.60
2023-01-19T05:59:10.359Z,5.59
2023-01-19T06:02:13.020Z,5.58
2023-01-19T06:05:15.652Z,5.58
2023-01-19T06:08:18.576Z,5.57
2023-01-19T06:11:21.901Z,5.57
2023-01-19T06:14:26.101Z,5.56
2023-01-19T06:17:28.683Z,5.56
2023-01-19T06:20:32.323Z,5.52
2023-01-19T06:23:35.223Z,5.56
2023-01-19T06:26:37.780Z,5.57
2023-01-19T06:29:41.659Z,5.52
2023-01-19T06:32:44.235Z,5.55
2023-01-19T06:35:47.088Z,5.52
2023-01-19T06:38:49.603Z,5.57
2023-01-19T06:41:52.136Z,5.57
2023-01-19T06:44:56.063Z,5.59
2023-01-19T06:47:58.609Z,5.59
2023-01-19T06:51:01.140Z,5.59
2023-01-19T06:54:03.891Z,5.60
2023-01-19T06:57:06.418Z,5.60
2023-01-19T07:00:11.763Z,5.61
2023-01-19T07:03:19.497Z,5.60
2023-01-19T07:06:22.225Z,5.58
2023-01-19T07:09:25.474Z,5.58
2023-01-19T07:12:28.104Z,5.59
2023-01-19T07:15:31.982Z,5.58
2023-01-19T07:18:34.611Z,5.56
2023-01-19T07:21:37.231Z,5.54
2023-01-19T07:24:39.805Z,5.52
2023-01-19T07:27:42.348Z,5.53
2023-01-19T07:30:47.038Z,5.54
2023-01-19T07:33:49.967Z,5.51
2023-01-19T07:36:52.500Z,5.51
2023-01-19T07:39:55.087Z,5.49
2023-01-19T07:42:57.695Z,5.51
2023-01-19T07:46:02.859Z,5.54
2023-01-19T07:49:05.512Z,5.52
2023-01-19T07:52:08.063Z,5.50
2023-01-19T07:55:10.953Z,5.49
2023-01-19T07:58:13.579Z,5.49
2023-01-19T08:01:17.993Z,5.48
2023-01-19T08:04:20.748Z,5.49
2023-01-19T08:07:23.410Z,5.48
2023-01-19T08:10:26.829Z,5.47
2023-01-19T08:13:29.413Z,5.45
2023-01-19T08:16:33.351Z,5.44
2023-01-19T08:19:36.011Z,5.43
2023-01-19T08:22:38.758Z,5.41
2023-01-19T08:25:44.317Z,5.40
2023-01-19T08:28:46.923Z,5.38
2023-01-19T08:31:50.918Z,5.39
2023-01-19T08:34:53.600Z,5.41
2023-01-19T08:37:56.736Z,5.43
2023-01-19T08:40:59.270Z,5.48
2023-01-19T08:44:01.825Z,5.56
2023-01-19T08:47:05.884Z,5.63
2023-01-19T08:50:10.671Z,5.85
2023-01-19T08:53:13.235Z,6.25
2023-01-19T08:56:15.833Z,6.71
2023-01-19T08:59:18.556Z,7.09
2023-01-19T09:02:22.547Z,7.46
2023-01-19T09:05:25.167Z,7.70
2023-01-19T09:08:28.078Z,8.00
2023-01-19T09:11:30.715Z,8.31
2023-01-19T09:14:33.524Z,8.58
2023-01-19T09:17:37.478Z,8.85
2023-01-19T09:20:42.379Z,9.14
2023-01-19T09:23:45.194Z,9.33
2023-01-19T09:26:47.932Z,9.56
2023-01-19T09:29:52.596Z,9.70
2023-01-19T09:32:58.630Z,9.81
2023-01-19T09:36:02.838Z,9.92
2023-01-19T09:39:05.415Z,10.06
2023-01-19T09:42:12.964Z,10.19
2023-01-19T09:45:16.109Z,10.23
2023-01-19T09:48:29.068Z,10.28
2023-01-19T09:51:34.561Z,10.35
2023-01-19T09:54:41.022Z,10.30
2023-01-19T09:57:45.127Z,10.28
2023-01-19T10:00:50.604Z,10.33
2023-01-19T10:04:03.761Z,10.53
2023-01-19T10:07:17.110Z,10.59
2023-01-19T10:10:21.611Z,10.64
2023-01-19T10:13:29.390Z,10.59
2023-01-19T10:16:39.678Z,10.51
2023-01-19T10:19:46.737Z,10.59
2023-01-19T10:22:50.277Z,10.72
2023-01-19T10:25:52.919Z,10.86
2023-01-19T10:28:57.887Z,10.92
2023-01-19T10:32:05.214Z,10.88
2023-01-19T10:35:15.151Z,10.98
2023-01-19T10:38:21.940Z,11.04
2023-01-19T10:41:27.261Z,10.76
2023-01-19T10:44:30.801Z,10.46
2023-01-19T10:47:35.490Z,10.44
2023-01-19T10:50:40.618Z,10.60
2023-01-19T10:53:43.996Z,10.77
2023-01-19T10:56:46.636Z,10.93
2023-01-19T10:59:50.778Z,10.95
2023-01-19T11:02:53.541Z,10.88
2023-01-19T11:05:59.734Z,10.88
2023-01-19T11:09:15.606Z,10.69
2023-01-19T11:12:19.742Z,10.24
2023-01-19T11:15:23.025Z,9.83
2023-01-19T11:18:28.148Z,9.59
2023-01-19T11:21:32.897Z,9.34
2023-01-19T11:24:36.746Z,9.16
2023-01-19T11:27:39.520Z,9.22
2023-01-19T11:30:55.057Z,9.21
2023-01-19T11:33:58.673Z,9.05
2023-01-19T11:37:03.621Z,9.02
2023-01-19T11:40:07.056Z,9.19
2023-01-19T11:43:11.381Z,9.33
2023-01-19T11:46:14.048Z,9.54
2023-01-19T11:49:19.999Z,9.63
2023-01-19T11:52:27.036Z,9.62
2023-01-19T11:55:34.008Z,9.46
2023-01-19T11:58:38.977Z,9.33
2023-01-19T12:01:43.448Z,9.22
2023-01-19T12:04:46.685Z,8.96
2023-01-19T12:07:50.679Z,8.66
2023-01-19T12:10:53.904Z,8.49
2023-01-19T12:13:56.452Z,8.42
2023-01-19T12:17:00.200Z,8.48
2023-01-19T12:20:07.033Z,8.60
2023-01-19T12:23:19.057Z,8.81
2023-01-19T12:26:29.893Z,8.99
2023-01-19T12:29:33.720Z,9.23
2023-01-19T12:32:36.766Z,9.35
2023-01-19T12:35:55.452Z,9.51
2023-01-19T12:39:01.878Z,9.44
2023-01-19T12:42:12.494Z,9.32
2023-01-19T12:45:15.568Z,9.12
2023-01-19T12:48:24.983Z,8.92
2023-01-19T12:51:27.612Z,8.92
2023-01-19T12:54:32.547Z,9.07
2023-01-19T12:57:36.827Z,9.28
2023-01-19T13:00:39.897Z,9.32
2023-01-19T13:03:47.517Z,9.15
2023-01-19T13:07:10.430Z,8.86
2023-01-19T13:10:50.624Z,8.71
2023-01-19T13:14:34.913Z,8.76
2023-01-19T13:17:40.184Z,8.79
2023-01-19T13:20:45.327Z,8.90
2023-01-19T13:23:53.339Z,9.10
2023-01-19T13:26:57.734Z,9.26
2023-01-19T13:30:01.547Z,9.31
2023-01-19T13:33:10.323Z,9.28
2023-01-19T13:36:22.637Z,9.22
2023-01-19T13:39:27.631Z,9.22
2023-01-19T13:42:31.374Z,9.29
2023-01-19T13:45:34.596Z,9.31
2023-01-19T13:48:38.494Z,9.29
2023-01-19T13:51:41.085Z,9.33
2023-01-19T13:54:50.290Z,9.40
2023-01-19T13:57:53.064Z,9.45
2023-01-19T14:00:55.760Z,9.52
2023-01-19T14:03:59.946Z,9.48
2023-01-19T14:07:04.296Z,9.37
2023-01-19T14:10:08.275Z,9.08
2023-01-19T14:13:15.342Z,9.10
2023-01-19T14:16:18.340Z,9.00
2023-01-19T14:19:22.350Z,8.90
2023-01-19T14:22:39.003Z,8.77
2023-01-19T14:25:45.086Z,8.69
2023-01-19T14:28:47.736Z,8.65
2023-01-19T14:31:51.489Z,8.58
2023-01-19T14:35:13.392Z,8.48
2023-01-19T14:38:16.022Z,8.39
2023-01-19T14:41:24.027Z,8.41
2023-01-19T14:44:29.301Z,8.38
2023-01-19T14:47:37.049Z,8.36
2023-01-19T14:50:51.013Z,8.34
2023-01-19T14:54:04.799Z,8.30
2023-01-19T14:57:11.715Z,8.28
2023-01-19T15:00:17.656Z,8.25
2023-01-19T15:03:20.256Z,8.24
2023-01-19T15:06:24.440Z,8.17
2023-01-19T15:09:27.103Z,8.04
2023-01-19T15:12:29.635Z,7.95
2023-01-19T15:15:33.135Z,7.88
2023-01-19T15:18:35.707Z,7.81
2023-01-19T15:21:41.940Z,7.76
2023-01-19T15:24:44.557Z,7.71
2023-01-19T15:27:47.300Z,7.65
2023-01-19T15:30:49.832Z,7.68
2023-01-19T15:33:52.372Z,7.64
2023-01-19T15:36:56.306Z,7.60
2023-01-19T15:39:58.904Z,7.55
2023-01-19T15:43:01.485Z,7.53
2023-01-19T15:46:06.266Z,7.49
2023-01-19T15:49:08.910Z,7.46
2023-01-19T15:52:12.867Z,7.44
2023-01-19T15:55:15.928Z,7.40
2023-01-19T15:58:20.495Z,7.31
2023-01-19T16:01:24.093Z,7.19
2023-01-19T16:04:26.708Z,7.11
2023-01-19T16:07:30.619Z,7.03
2023-01-19T16:10:33.258Z,6.93
2023-01-19T16:13:35.856Z,6.78
2023-01-19T16:16:38.629Z,6.67
2023-01-19T16:19:41.253Z,6.60
2023-01-19T16:22:45.142Z,6.54
2023-01-19T16:25:56.186Z,6.48
2023-01-19T16:28:59.859Z,6.42
2023-01-19T16:32:02.465Z,6.37
2023-01-19T16:35:05.459Z,6.30
2023-01-19T16:38:10.153Z,6.26
2023-01-19T16:41:12.707Z,6.17
2023-01-19T16:44:16.283Z,6.08
2023-01-19T16:47:18.836Z,6.03
2023-01-19T16:50:21.355Z,5.95
2023-01-19T16:53:25.285Z,5.81
2023-01-19T16:56:27.832Z,5.74
2023-01-19T16:59:30.444Z,5.66
2023-01-19T17:02:33.306Z,5.54
2023-01-19T17:05:35.851Z,5.38
2023-01-19T17:08:39.809Z,5.22
2023-01-19T17:11:42.507Z,4.97
2023-01-19T17:14:47.170Z,4.72
2023-01-19T17:17:49.699Z,4.56
2023-01-19T17:20:52.283Z,4.48
2023-01-19T17:23:56.571Z,4.46
2023-01-19T17:26:59.183Z,4.45
2023-01-19T17:30:01.794Z,4.47
2023-01-19T17:33:04.336Z,4.52
2023-01-19T17:36:08.033Z,4.60
2023-01-19T17:39:14.723Z,4.70
2023-01-19T17:42:17.467Z,4.80
2023-01-19T17:45:20.051Z,4.86
2023-01-19T17:48:22.619Z,4.88
2023-01-19T17:51:25.587Z,4.81
2023-01-19T17:54:29.725Z,4.74
2023-01-19T17:57:32.276Z,4.65
2023-01-19T18:00:34.832Z,4.66
2023-01-19T18:03:37.391Z,4.72
2023-01-19T18:06:40.095Z,4.76
2023-01-19T18:09:44.068Z,4.80
2023-01-19T18:12:46.594Z,4.82
2023-01-19T18:15:49.141Z,4.83
2023-01-19T18:18:53.413Z,4.79
2023-01-19T18:21:56.618Z,4.66
2023-01-19T18:25:01.619Z,4.45
2023-01-19T18:28:05.379Z,4.29
2023-01-19T18:31:08.175Z,4.19
2023-01-19T18:34:10.793Z,4.12
2023-01-19T18:37:13.335Z,3.96
2023-01-19T18:40:17.633Z,3.93
2023-01-19T18:43:20.203Z,3.87
2023-01-19T18:46:22.792Z,3.90
2023-01-19T18:49:25.387Z,3.96
2023-01-19T18:52:27.927Z,4.07
2023-01-19T18:55:31.794Z,4.18
2023-01-19T18:58:34.462Z,4.26
2023-01-19T19:01:37.127Z,4.33
2023-01-19T19:04:40.031Z,4.37
2023-01-19T19:07:42.801Z,4.36
2023-01-19T19:10:46.678Z,4.36
2023-01-19T19:13:52.588Z,4.28
2023-01-19T19:16:55.239Z,4.19
2023-01-19T19:19:57.805Z,4.09
2023-01-19T19:23:00.380Z,3.96
2023-01-19T19:26:04.780Z,3.94
2023-01-19T19:29:07.371Z,3.94
2023-01-19T19:32:09.947Z,3.85
2023-01-19T19:35:12.581Z,3.73
2023-01-19T19:38:15.118Z,3.55
2023-01-19T19:41:20.164Z,3.30
2023-01-19T19:44:22.744Z,3.09
2023-01-19T19:47:25.450Z,3.04
2023-01-19T19:50:28.021Z,3.06
2023-01-19T19:53:30.559Z,3.11
2023-01-19T19:56:34.776Z,3.06
2023-01-19T19:59:37.486Z,2.99
2023-01-19T20:02:40.031Z,2.91
2023-01-19T20:05:42.614Z,2.82
2023-01-19T20:08:45.181Z,2.72
2023-01-19T20:11:49.094Z,2.62
2023-01-19T20:14:51.647Z,2.49
2023-01-19T20:17:56.041Z,2.33
2023-01-19T20:20:58.730Z,2.23
2023-01-19T20:24:01.969Z,2.21
2023-01-19T20:27:05.944Z,2.21
2023-01-19T20:30:09.683Z,2.20
2023-01-19T20:33:12.220Z,2.22
2023-01-19T20:36:14.873Z,2.17
2023-01-19T20:39:17.562Z,2.14
2023-01-19T20:42:21.471Z,2.10
2023-01-19T20:45:25.938Z,2.06
2023-01-19T20:48:28.511Z,2.03
2023-01-19T20:51:31.064Z,2.00
2023-01-19T20:54:33.648Z,2.01
2023-01-19T20:57:37.568Z,1.87
2023-01-19T21:00:40.912Z,1.98
2023-01-19T21:03:43.516Z,1.95
2023-01-19T21:06:46.119Z,1.90
2023-01-19T21:09:48.733Z,1.88
2023-01-19T21:12:52.661Z,1.89
2023-01-19T21:15:55.222Z,1.95
2023-01-19T21:18:57.740Z,1.89
2023-01-19T21:22:00.310Z,1.96
2023-01-19T21:25:02.905Z,1.99
2023-01-19T21:28:07.048Z,2.05
2023-01-19T21:31:10.575Z,2.13
2023-01-19T21:34:14.020Z,2.23
2023-01-19T21:37:16.587Z,2.32
2023-01-19T21:40:19.932Z,2.42
2023-01-19T21:43:23.934Z,2.52
2023-01-19T21:46:28.863Z,2.60
2023-01-19T21:49:31.876Z,2.69
2023-01-19T21:52:34.448Z,2.65
2023-01-19T21:55:37.064Z,2.53
2023-01-19T21:58:40.988Z,2.39
2023-01-19T22:01:43.836Z,2.33
2023-01-19T22:04:46.479Z,2.34
2023-01-19T22:07:49.408Z,2.33
2023-01-19T22:10:51.996Z,2.34
2023-01-19T22:13:55.871Z,2.38
2023-01-19T22:16:58.455Z,2.38
2023-01-19T22:20:01.145Z,2.37
2023-01-19T22:23:03.679Z,2.38
2023-01-19T22:26:06.264Z,2.37
2023-01-19T22:29:11.786Z,2.35
2023-01-19T22:32:14.351Z,2.34
2023-01-19T22:35:17.188Z,2.36
2023-01-19T22:38:19.723Z,2.41
2023-01-19T22:41:22.929Z,2.44
2023-01-19T22:44:27.128Z,2.49
2023-01-19T22:47:29.750Z,2.54
2023-01-19T22:50:32.274Z,2.59
2023-01-19T22:53:34.846Z,2.61
2023-01-19T22:56:37.965Z,2.63
2023-01-19T22:59:43.537Z,2.61
2023-01-19T23:02:46.145Z,2.57
2023-01-19T23:05:48.771Z,2.53
2023-01-19T23:08:51.413Z,2.50
2023-01-19T23:11:54.053Z,2.46
2023-01-19T23:14:57.981Z,2.41
2023-01-19T23:18:00.577Z,2.33
2023-01-19T23:21:03.821Z,2.27
2023-01-19T23:24:06.776Z,2.21
2023-01-19T23:27:09.551Z,2.14
2023-01-19T23:30:14.379Z,2.14
2023-01-19T23:33:16.940Z,2.12
2023-01-19T23:36:19.777Z,2.09
2023-01-19T23:39:22.727Z,2.07
2023-01-19T23:42:25.261Z,2.06
2023-01-19T23:45:29.136Z,2.04
2023-01-19T23:48:31.667Z,2.00
2023-01-19T23:51:34.459Z,1.93
2023-01-19T23:54:37.195Z,1.92
2023-01-19T23:57:39.828Z,1.92
